createdAt,value
2023-04-30T00:00:52.677Z,39.94
2023-04-30T00:01:52.758Z,39.92
2023-04-30T00:02:52.830Z,39.93
2023-04-30T00:03:52.786Z,39.94
2023-04-30T00:04:52.747Z,39.97
2023-04-30T00:05:52.760Z,39.95
2023-04-30T00:06:52.774Z,39.94
2023-04-30T00:07:52.784Z,39.95
2023-04-30T00:08:52.828Z,39.91
2023-04-30T00:09:53.160Z,39.94
2023-04-30T00:10:52.849Z,39.94
2023-04-30T00:11:52.855Z,39.92
2023-04-30T00:12:52.835Z,39.95
2023-04-30T00:13:52.855Z,39.94
2023-04-30T00:14:52.882Z,39.95
2023-04-30T00:15:52.991Z,39.95
2023-04-30T00:16:52.895Z,39.95
2023-04-30T00:17:53.024Z,39.94
2023-04-30T00:18:52.956Z,39.97
2023-04-30T00:19:53.204Z,39.95
2023-04-30T00:20:52.977Z,39.96
2023-04-30T00:21:52.998Z,39.93
2023-04-30T00:22:52.976Z,39.95
2023-04-30T00:23:52.995Z,39.96
2023-04-30T00:24:53.002Z,39.95
2023-04-30T00:25:53.047Z,39.93
2023-04-30T00:26:53.050Z,39.96
2023-04-30T00:27:53.063Z,39.95
2023-04-30T00:28:53.061Z,39.96
2023-04-30T00:29:53.245Z,39.94
2023-04-30T00:30:53.397Z,39.96
2023-04-30T00:31:53.190Z,39.96
2023-04-30T00:32:53.158Z,39.91
2023-04-30T00:33:53.121Z,39.94
2023-04-30T00:34:53.205Z,39.94
2023-04-30T00:35:53.134Z,39.89
2023-04-30T00:36:53.178Z,39.94
2023-04-30T00:37:53.214Z,39.94
2023-04-30T00:38:53.410Z,39.96
2023-04-30T00:39:53.571Z,39.94
2023-04-30T00:40:53.403Z,39.95
2023-04-30T00:41:53.286Z,39.92
2023-04-30T00:42:53.249Z,39.94
2023-04-30T00:43:53.266Z,39.93
2023-04-30T00:44:53.271Z,39.92
2023-04-30T00:45:53.334Z,39.93
2023-04-30T00:46:53.308Z,39.93
2023-04-30T00:47:53.349Z,39.96
2023-04-30T00:48:53.345Z,39.95
2023-04-30T00:49:53.527Z,39.95
2023-04-30T00:50:53.376Z,39.95
2023-04-30T00:51:53.414Z,39.92
2023-04-30T00:52:53.479Z,39.93
2023-04-30T00:53:53.449Z,39.93
2023-04-30T00:54:53.475Z,39.93
2023-04-30T00:55:53.490Z,39.93
2023-04-30T00:56:53.521Z,39.94
2023-04-30T00:57:53.545Z,39.93
2023-04-30T00:58:53.593Z,39.94
2023-04-30T00:59:53.900Z,39.92
2023-04-30T01:00:53.674Z,39.93
2023-04-30T01:01:53.654Z,39.95
2023-04-30T01:02:53.722Z,39.92
2023-04-30T01:03:53.674Z,39.92
2023-04-30T01:04:53.700Z,39.90
2023-04-30T01:05:53.845Z,39.92
2023-04-30T01:06:53.761Z,39.95
2023-04-30T01:07:53.772Z,39.93
2023-04-30T01:08:53.813Z,39.94
2023-04-30T01:09:54.007Z,39.92
2023-04-30T01:10:53.923Z,39.96
2023-04-30T01:11:53.889Z,39.93
2023-04-30T01:12:53.909Z,39.93
2023-04-30T01:13:53.961Z,39.91
2023-04-30T01:14:53.976Z,39.91
2023-04-30T01:15:54.087Z,39.93
2023-04-30T01:16:54.014Z,39.92
2023-04-30T01:17:54.088Z,39.95
2023-04-30T01:18:54.184Z,39.93
2023-04-30T01:19:54.284Z,39.94
2023-04-30T01:20:54.186Z,39.94
2023-04-30T01:21:54.149Z,39.96
2023-04-30T01:22:54.164Z,39.92
2023-04-30T01:23:54.232Z,39.95
2023-04-30T01:24:54.256Z,39.89
2023-04-30T01:25:54.273Z,39.92
2023-04-30T01:26:54.270Z,39.91
2023-04-30T01:27:54.311Z,39.90
2023-04-30T01:28:54.329Z,39.90
2023-04-30T01:29:54.533Z,39.91
2023-04-30T01:30:54.471Z,39.92
2023-04-30T01:31:54.416Z,39.94
2023-04-30T01:32:54.462Z,39.93
2023-04-30T01:33:54.471Z,39.94
2023-04-30T01:34:54.505Z,39.91
2023-04-30T01:35:54.518Z,39.93
2023-04-30T01:36:54.548Z,39.92
2023-04-30T01:37:54.558Z,39.91
2023-04-30T01:38:54.583Z,39.92
2023-04-30T01:39:54.786Z,39.91
2023-04-30T01:40:54.647Z,39.90
2023-04-30T01:41:54.692Z,39.91
2023-04-30T01:42:54.711Z,39.91
2023-04-30T01:43:54.730Z,39.91
2023-04-30T01:44:54.749Z,39.91
2023-04-30T01:45:54.797Z,39.92
2023-04-30T01:46:54.817Z,39.90
2023-04-30T01:47:54.811Z,39.88
2023-04-30T01:48:54.819Z,39.89
2023-04-30T01:49:55.122Z,39.92
2023-04-30T01:50:54.916Z,39.88
2023-04-30T01:51:54.924Z,39.90
2023-04-30T01:52:54.946Z,39.90
2023-04-30T01:53:54.966Z,39.89
2023-04-30T01:54:54.994Z,39.91
2023-04-30T01:55:55.030Z,39.91
2023-04-30T01:56:55.088Z,39.93
2023-04-30T01:57:55.089Z,39.90
2023-04-30T01:58:55.103Z,39.91
2023-04-30T01:59:55.439Z,39.94
2023-04-30T02:00:55.145Z,39.92
2023-04-30T02:01:55.314Z,39.90
2023-04-30T02:02:55.298Z,39.92
2023-04-30T02:03:55.386Z,39.94
2023-04-30T02:04:55.272Z,39.92
2023-04-30T02:05:55.329Z,39.93
2023-04-30T02:06:55.322Z,39.91
2023-04-30T02:07:55.345Z,39.90
2023-04-30T02:08:55.365Z,39.94
2023-04-30T02:09:55.640Z,39.94
2023-04-30T02:10:55.417Z,39.92
2023-04-30T02:11:55.463Z,39.94
2023-04-30T02:12:55.470Z,39.92
2023-04-30T02:13:55.502Z,39.91
2023-04-30T02:14:55.535Z,39.93
2023-04-30T02:15:55.603Z,39.91
2023-04-30T02:16:55.568Z,39.91
2023-04-30T02:17:55.655Z,39.90
2023-04-30T02:18:55.627Z,39.92
2023-04-30T02:19:55.930Z,39.93
2023-04-30T02:20:55.729Z,39.93
2023-04-30T02:21:55.716Z,39.95
2023-04-30T02:22:55.719Z,39.91
2023-04-30T02:23:55.772Z,39.91
2023-04-30T02:24:55.811Z,39.91
2023-04-30T02:25:55.810Z,39.90
2023-04-30T02:26:55.834Z,39.89
2023-04-30T02:27:55.861Z,39.92
2023-04-30T02:28:55.919Z,39.88
2023-04-30T02:29:56.139Z,39.91
2023-04-30T02:30:55.950Z,39.88
2023-04-30T02:31:56.099Z,39.90
2023-04-30T02:32:56.037Z,39.89
2023-04-30T02:33:56.023Z,39.90
2023-04-30T02:34:56.070Z,39.90
2023-04-30T02:35:56.091Z,39.91
2023-04-30T02:36:56.147Z,39.92
2023-04-30T02:37:56.215Z,39.93
2023-04-30T02:38:56.172Z,39.90
2023-04-30T02:39:56.430Z,39.90
2023-04-30T02:40:56.242Z,39.91
2023-04-30T02:41:56.280Z,39.90
2023-04-30T02:42:56.341Z,39.92
2023-04-30T02:43:56.344Z,39.89
2023-04-30T02:44:56.380Z,39.90
2023-04-30T02:45:56.380Z,39.91
2023-04-30T02:46:56.425Z,39.89
2023-04-30T02:47:56.469Z,39.92
2023-04-30T02:48:56.456Z,39.90
2023-04-30T02:49:56.778Z,39.90
2023-04-30T02:50:56.529Z,39.92
2023-04-30T02:51:56.590Z,39.92
2023-04-30T02:52:56.561Z,39.91
2023-04-30T02:53:56.597Z,39.92
2023-04-30T02:54:56.628Z,39.91
2023-04-30T02:55:56.666Z,39.90
2023-04-30T02:56:56.693Z,39.92
2023-04-30T02:57:56.705Z,39.90
2023-04-30T02:58:56.740Z,39.89
2023-04-30T02:59:57.072Z,39.89
2023-04-30T03:00:56.881Z,39.90
2023-04-30T03:01:56.859Z,39.93
2023-04-30T03:02:56.963Z,39.94
2023-04-30T03:03:56.933Z,39.93
2023-04-30T03:04:56.997Z,39.90
2023-04-30T03:05:57.080Z,39.94
2023-04-30T03:06:57.028Z,39.93
2023-04-30T03:07:57.005Z,39.91
2023-04-30T03:08:57.082Z,39.92
2023-04-30T03:09:57.158Z,39.90
2023-04-30T03:10:57.130Z,39.91
2023-04-30T03:11:57.150Z,39.91
2023-04-30T03:12:57.228Z,39.91
2023-04-30T03:13:57.204Z,39.92
2023-04-30T03:14:57.255Z,39.91
2023-04-30T03:15:57.320Z,39.93
2023-04-30T03:16:57.318Z,39.93
2023-04-30T03:17:57.391Z,39.92
2023-04-30T03:18:57.387Z,39.91
2023-04-30T03:19:57.555Z,39.91
2023-04-30T03:20:57.460Z,39.92
2023-04-30T03:21:57.541Z,39.90
2023-04-30T03:22:57.542Z,39.90
2023-04-30T03:23:57.672Z,39.90
2023-04-30T03:24:57.573Z,39.89
2023-04-30T03:25:57.630Z,39.89
2023-04-30T03:26:57.653Z,39.90
2023-04-30T03:27:57.667Z,39.90
2023-04-30T03:28:57.690Z,39.89
2023-04-30T03:29:57.773Z,39.90
2023-04-30T03:30:57.755Z,39.89
2023-04-30T03:31:57.847Z,39.88
2023-04-30T03:32:57.875Z,39.89
2023-04-30T03:33:57.891Z,39.90
2023-04-30T03:34:57.896Z,39.87
2023-04-30T03:35:57.915Z,39.89
2023-04-30T03:36:57.924Z,39.89
2023-04-30T03:37:57.936Z,39.90
2023-04-30T03:38:58.007Z,39.90
2023-04-30T03:39:57.991Z,39.88
2023-04-30T03:40:58.002Z,39.87
2023-04-30T03:41:58.061Z,39.88
2023-04-30T03:42:58.060Z,39.88
2023-04-30T03:43:58.065Z,39.90
2023-04-30T03:44:58.123Z,39.87
2023-04-30T03:45:58.143Z,39.92
2023-04-30T03:46:58.179Z,39.89
2023-04-30T03:47:58.182Z,39.88
2023-04-30T03:48:58.189Z,39.92
2023-04-30T03:49:58.243Z,39.88
2023-04-30T03:50:58.254Z,39.86
2023-04-30T03:51:58.300Z,39.88
2023-04-30T03:52:58.321Z,39.88
2023-04-30T03:53:58.339Z,39.89
2023-04-30T03:54:58.335Z,39.87
2023-04-30T03:55:58.382Z,39.89
2023-04-30T03:56:58.463Z,39.90
2023-04-30T03:57:58.432Z,39.90
2023-04-30T03:58:58.486Z,39.92
2023-04-30T03:59:58.487Z,39.90
2023-04-30T04:00:58.558Z,39.89
2023-04-30T04:01:58.640Z,39.87
2023-04-30T04:02:58.619Z,39.88
2023-04-30T04:03:58.706Z,39.88
2023-04-30T04:04:58.674Z,39.88
2023-04-30T04:05:58.736Z,39.88
2023-04-30T04:06:58.771Z,39.88
2023-04-30T04:07:58.799Z,39.91
2023-04-30T04:08:58.815Z,39.89
2023-04-30T04:09:58.841Z,39.91
2023-04-30T04:10:58.873Z,39.89
2023-04-30T04:11:58.921Z,39.90
2023-04-30T04:12:58.929Z,39.86
2023-04-30T04:13:58.950Z,39.88
2023-04-30T04:14:58.985Z,39.87
2023-04-30T04:15:59.006Z,39.88
2023-04-30T04:16:59.039Z,39.89
2023-04-30T04:17:59.107Z,39.90
2023-04-30T04:18:59.115Z,39.86
2023-04-30T04:19:59.108Z,39.90
2023-04-30T04:20:59.138Z,39.88
2023-04-30T04:21:59.202Z,39.88
2023-04-30T04:22:59.239Z,39.88
2023-04-30T04:23:59.247Z,39.88
2023-04-30T04:24:59.311Z,39.89
2023-04-30T04:25:59.310Z,39.89
2023-04-30T04:26:59.344Z,39.89
2023-04-30T04:27:59.383Z,39.86
2023-04-30T04:28:59.399Z,39.89
2023-04-30T04:29:59.437Z,39.86
2023-04-30T04:30:59.501Z,39.89
2023-04-30T04:31:59.588Z,39.88
2023-04-30T04:32:59.533Z,39.88
2023-04-30T04:33:59.530Z,39.88
2023-04-30T04:34:59.599Z,39.87
2023-04-30T04:35:59.624Z,39.89
2023-04-30T04:36:59.637Z,39.88
2023-04-30T04:37:59.663Z,39.86
2023-04-30T04:38:59.692Z,39.86
2023-04-30T04:39:59.736Z,39.91
2023-04-30T04:40:59.763Z,39.86
2023-04-30T04:41:59.790Z,39.86
2023-04-30T04:42:59.827Z,39.88
2023-04-30T04:43:59.828Z,39.88
2023-04-30T04:44:59.868Z,39.86
2023-04-30T04:45:59.919Z,39.85
2023-04-30T04:46:59.920Z,39.87
2023-04-30T04:47:59.999Z,39.86
2023-04-30T04:48:59.966Z,39.86
2023-04-30T04:50:00.036Z,39.85
2023-04-30T04:51:00.053Z,39.85
2023-04-30T04:52:00.071Z,39.89
2023-04-30T04:53:00.131Z,39.86
2023-04-30T04:54:00.137Z,39.86
2023-04-30T04:55:00.177Z,39.88
2023-04-30T04:56:00.207Z,39.86
2023-04-30T04:57:00.203Z,39.86
2023-04-30T04:58:00.219Z,39.86
2023-04-30T04:59:00.244Z,39.86
2023-04-30T05:00:00.295Z,39.86
2023-04-30T05:01:00.345Z,39.85
2023-04-30T05:02:00.549Z,39.86
2023-04-30T05:03:00.451Z,39.85
2023-04-30T05:04:00.566Z,39.86
2023-04-30T05:05:00.482Z,39.86
2023-04-30T05:06:00.543Z,39.86
2023-04-30T05:07:00.557Z,39.84
2023-04-30T05:08:00.583Z,39.83
2023-04-30T05:09:00.575Z,39.86
2023-04-30T05:10:00.668Z,39.86
2023-04-30T05:11:00.750Z,39.85
2023-04-30T05:12:00.725Z,39.86
2023-04-30T05:13:00.709Z,39.84
2023-04-30T05:14:00.772Z,39.85
2023-04-30T05:15:00.771Z,39.86
2023-04-30T05:16:00.836Z,39.85
2023-04-30T05:17:00.885Z,39.82
2023-04-30T05:18:00.924Z,39.84
2023-04-30T05:19:00.912Z,39.83
2023-04-30T05:20:00.947Z,39.83
2023-04-30T05:21:00.953Z,39.86
2023-04-30T05:22:01.005Z,39.82
2023-04-30T05:23:01.021Z,39.82
2023-04-30T05:24:01.052Z,39.84
2023-04-30T05:25:01.120Z,39.83
2023-04-30T05:26:01.131Z,39.82
2023-04-30T05:27:01.183Z,39.83
2023-04-30T05:28:01.213Z,39.81
2023-04-30T05:29:01.272Z,39.82
2023-04-30T05:30:01.260Z,39.82
2023-04-30T05:31:01.287Z,39.80
2023-04-30T05:32:01.390Z,39.83
2023-04-30T05:33:01.416Z,39.81
2023-04-30T05:34:01.377Z,39.78
2023-04-30T05:35:01.458Z,39.79
2023-04-30T05:36:01.471Z,39.82
2023-04-30T05:37:01.509Z,39.84
2023-04-30T05:38:01.553Z,39.85
2023-04-30T05:39:01.533Z,39.82
2023-04-30T05:40:01.610Z,39.81
2023-04-30T05:41:01.634Z,39.82
2023-04-30T05:42:01.654Z,39.83
2023-04-30T05:43:01.719Z,39.81
2023-04-30T05:44:01.726Z,39.79
2023-04-30T05:45:01.795Z,39.80
2023-04-30T05:46:01.874Z,39.82
2023-04-30T05:47:01.836Z,39.80
2023-04-30T05:48:02.098Z,39.82
2023-04-30T05:49:01.876Z,39.82
2023-04-30T05:50:01.939Z,39.82
2023-04-30T05:51:01.966Z,39.79
2023-04-30T05:52:01.985Z,39.80
2023-04-30T05:53:01.991Z,39.80
2023-04-30T05:54:02.032Z,39.81
2023-04-30T05:55:02.091Z,39.78
2023-04-30T05:56:02.105Z,39.80
2023-04-30T05:57:02.125Z,39.80
2023-04-30T05:58:02.142Z,39.81
2023-04-30T05:59:02.165Z,39.81
2023-04-30T06:00:02.182Z,39.80
2023-04-30T06:01:02.200Z,39.81
2023-04-30T06:02:02.337Z,39.82
2023-04-30T06:03:02.308Z,39.81
2023-04-30T06:04:02.299Z,39.79
2023-04-30T06:05:02.374Z,39.80
2023-04-30T06:06:02.464Z,39.80
2023-04-30T06:07:02.471Z,39.80
2023-04-30T06:08:02.484Z,39.78
2023-04-30T06:09:02.458Z,39.79
2023-04-30T06:10:02.522Z,39.79
2023-04-30T06:11:02.500Z,39.79
2023-04-30T06:12:02.557Z,39.76
2023-04-30T06:13:02.559Z,39.78
2023-04-30T06:14:02.592Z,39.78
2023-04-30T06:15:02.675Z,39.80
2023-04-30T06:16:02.656Z,39.78
2023-04-30T06:17:02.653Z,39.81
2023-04-30T06:18:02.690Z,39.79
2023-04-30T06:19:02.664Z,39.74
2023-04-30T06:20:02.765Z,39.77
2023-04-30T06:21:02.736Z,39.77
2023-04-30T06:22:02.792Z,39.76
2023-04-30T06:23:02.819Z,39.76
2023-04-30T06:24:02.829Z,39.74
2023-04-30T06:25:02.854Z,39.78
2023-04-30T06:26:02.984Z,39.77
2023-04-30T06:27:03.040Z,39.77
2023-04-30T06:28:02.958Z,39.75
2023-04-30T06:29:02.977Z,39.72
2023-04-30T06:30:03.000Z,39.75
2023-04-30T06:31:03.201Z,39.75
2023-04-30T06:32:03.078Z,39.73
2023-04-30T06:33:03.145Z,39.75
2023-04-30T06:34:03.118Z,39.73
2023-04-30T06:35:03.208Z,39.74
2023-04-30T06:36:03.260Z,39.75
2023-04-30T06:37:03.218Z,39.71
2023-04-30T06:38:03.260Z,39.73
2023-04-30T06:39:03.327Z,39.74
2023-04-30T06:40:03.315Z,39.70
2023-04-30T06:41:03.345Z,39.70
2023-04-30T06:42:03.363Z,39.73
2023-04-30T06:43:03.385Z,39.69
2023-04-30T06:44:03.398Z,39.69
2023-04-30T06:45:03.457Z,39.70
2023-04-30T06:46:03.522Z,39.71
2023-04-30T06:47:03.515Z,39.70
2023-04-30T06:48:03.611Z,39.70
2023-04-30T06:49:03.550Z,39.68
2023-04-30T06:50:03.582Z,39.70
2023-04-30T06:51:03.600Z,39.71
2023-04-30T06:52:03.645Z,39.67
2023-04-30T06:53:03.667Z,39.67
2023-04-30T06:54:03.698Z,39.69
2023-04-30T06:55:03.767Z,39.64
2023-04-30T06:56:03.756Z,39.66
2023-04-30T06:57:03.788Z,39.65
2023-04-30T06:58:03.807Z,39.68
2023-04-30T06:59:03.851Z,39.69
2023-04-30T07:00:03.849Z,39.64
2023-04-30T07:01:03.911Z,39.64
2023-04-30T07:02:03.935Z,39.66
2023-04-30T07:03:03.994Z,39.66
2023-04-30T07:04:03.977Z,39.64
2023-04-30T07:05:04.013Z,39.62
2023-04-30T07:06:04.089Z,39.65
2023-04-30T07:07:04.085Z,39.64
2023-04-30T07:08:04.091Z,39.63
2023-04-30T07:09:04.147Z,39.62
2023-04-30T07:10:04.221Z,39.62
2023-04-30T07:11:04.215Z,39.59
2023-04-30T07:12:04.232Z,39.61
2023-04-30T07:13:04.263Z,39.63
2023-04-30T07:14:04.289Z,39.63
2023-04-30T07:15:04.540Z,39.61
2023-04-30T07:16:04.364Z,39.62
2023-04-30T07:17:04.420Z,39.60
2023-04-30T07:18:04.549Z,39.60
2023-04-30T07:19:04.408Z,39.57
2023-04-30T07:20:04.475Z,39.57
2023-04-30T07:21:04.461Z,39.62
2023-04-30T07:22:04.532Z,39.60
2023-04-30T07:23:04.548Z,39.58
2023-04-30T07:24:04.551Z,39.56
2023-04-30T07:25:05.039Z,39.57
2023-04-30T07:26:04.647Z,39.61
2023-04-30T07:27:04.721Z,39.59
2023-04-30T07:28:04.671Z,39.58
2023-04-30T07:29:04.698Z,39.58
2023-04-30T07:30:04.732Z,39.59
2023-04-30T07:31:04.807Z,39.57
2023-04-30T07:32:04.804Z,39.54
2023-04-30T07:33:04.874Z,39.55
2023-04-30T07:34:04.868Z,39.55
2023-04-30T07:35:04.877Z,39.56
2023-04-30T07:36:04.888Z,39.55
2023-04-30T07:37:04.953Z,39.54
2023-04-30T07:38:04.971Z,39.55
2023-04-30T07:39:04.967Z,39.55
2023-04-30T07:40:05.065Z,39.54
2023-04-30T07:41:05.067Z,39.52
2023-04-30T07:42:05.064Z,39.55
2023-04-30T07:43:05.120Z,39.55
2023-04-30T07:44:05.084Z,39.52
2023-04-30T07:45:05.100Z,39.54
2023-04-30T07:46:05.180Z,39.52
2023-04-30T07:47:05.182Z,39.53
2023-04-30T07:48:05.198Z,39.52
2023-04-30T07:49:05.214Z,39.54
2023-04-30T07:50:05.234Z,39.54
2023-04-30T07:51:05.309Z,39.53
2023-04-30T07:52:05.296Z,39.56
2023-04-30T07:53:05.328Z,39.54
2023-04-30T07:54:05.368Z,39.54
2023-04-30T07:55:05.391Z,39.54
2023-04-30T07:56:05.388Z,39.54
2023-04-30T07:57:05.450Z,39.53
2023-04-30T07:58:05.493Z,39.53
2023-04-30T07:59:05.519Z,39.53
2023-04-30T08:00:05.515Z,39.52
2023-04-30T08:01:05.595Z,39.55
2023-04-30T08:02:05.606Z,39.54
2023-04-30T08:03:05.643Z,39.53
2023-04-30T08:04:05.724Z,39.55
2023-04-30T08:05:05.658Z,39.54
2023-04-30T08:06:05.739Z,39.54
2023-04-30T08:07:05.707Z,39.52
2023-04-30T08:08:05.738Z,39.52
2023-04-30T08:09:05.758Z,39.56
2023-04-30T08:10:05.799Z,39.57
2023-04-30T08:11:05.841Z,39.56
2023-04-30T08:12:05.859Z,39.57
2023-04-30T08:13:05.882Z,39.58
2023-04-30T08:14:05.873Z,39.59
2023-04-30T08:15:05.901Z,39.57
2023-04-30T08:16:05.941Z,39.55
2023-04-30T08:17:06.009Z,39.57
2023-04-30T08:18:06.085Z,39.55
2023-04-30T08:19:06.008Z,39.58
2023-04-30T08:20:06.054Z,39.57
2023-04-30T08:21:06.056Z,39.57
2023-04-30T08:22:06.085Z,39.57
2023-04-30T08:23:06.109Z,39.59
2023-04-30T08:24:06.122Z,39.57
2023-04-30T08:25:06.202Z,39.58
2023-04-30T08:26:06.187Z,39.59
2023-04-30T08:27:06.248Z,39.55
2023-04-30T08:28:06.236Z,39.54
2023-04-30T08:29:06.273Z,39.54
2023-04-30T08:30:06.268Z,39.56
2023-04-30T08:31:06.319Z,39.56
2023-04-30T08:32:06.382Z,39.54
2023-04-30T08:33:06.407Z,39.54
2023-04-30T08:34:06.369Z,39.53
2023-04-30T08:35:06.430Z,39.55
2023-04-30T08:36:06.422Z,39.53
2023-04-30T08:37:06.452Z,39.56
2023-04-30T08:38:06.508Z,39.55
2023-04-30T08:39:06.583Z,39.53
2023-04-30T08:40:06.526Z,39.53
2023-04-30T08:41:06.567Z,39.54
2023-04-30T08:42:06.572Z,39.52
2023-04-30T08:43:06.584Z,39.52
2023-04-30T08:44:08.494Z,39.50
2023-04-30T08:45:06.629Z,39.51
2023-04-30T08:46:06.645Z,39.51
2023-04-30T08:47:06.663Z,39.51
2023-04-30T08:48:06.765Z,39.51
2023-04-30T08:49:06.858Z,39.50
2023-04-30T08:50:06.705Z,39.50
2023-04-30T08:51:06.726Z,39.53
2023-04-30T08:52:06.738Z,39.52
2023-04-30T08:53:06.775Z,39.50
2023-04-30T08:54:06.775Z,39.49
2023-04-30T08:55:06.811Z,39.52
2023-04-30T08:56:06.817Z,39.50
2023-04-30T08:57:06.851Z,39.50
2023-04-30T08:58:06.849Z,39.48
2023-04-30T08:59:06.842Z,39.50
2023-04-30T09:00:06.906Z,39.49
2023-04-30T09:01:06.934Z,39.47
2023-04-30T09:02:06.950Z,39.50
2023-04-30T09:03:07.034Z,39.50
2023-04-30T09:04:07.028Z,39.48
2023-04-30T09:05:06.985Z,39.50
2023-04-30T09:06:07.049Z,39.49
2023-04-30T09:07:09.426Z,39.49
2023-04-30T09:08:07.208Z,39.51
2023-04-30T09:09:07.213Z,39.48
2023-04-30T09:10:07.251Z,39.52
2023-04-30T09:11:07.296Z,39.49
2023-04-30T09:12:07.270Z,39.51
2023-04-30T09:13:07.646Z,39.51
2023-04-30T09:14:07.318Z,39.49
2023-04-30T09:15:07.355Z,39.51
2023-04-30T09:16:07.389Z,39.52
2023-04-30T09:17:07.409Z,39.48
2023-04-30T09:18:07.608Z,39.49
2023-04-30T09:19:07.455Z,39.51
2023-04-30T09:20:07.574Z,39.47
2023-04-30T09:21:07.485Z,39.47
2023-04-30T09:22:07.500Z,39.49
2023-04-30T09:23:07.638Z,39.48
2023-04-30T09:24:07.566Z,39.49
2023-04-30T09:25:07.616Z,39.50
2023-04-30T09:26:07.654Z,39.50
2023-04-30T09:27:07.643Z,39.50
2023-04-30T09:28:07.739Z,39.49
2023-04-30T09:29:08.119Z,39.50
2023-04-30T09:30:07.750Z,39.48
2023-04-30T09:31:07.799Z,39.48
2023-04-30T09:32:07.756Z,39.48
2023-04-30T09:33:10.758Z,39.49
2023-04-30T09:34:07.795Z,39.49
2023-04-30T09:35:07.791Z,39.49
2023-04-30T09:36:07.789Z,39.48
2023-04-30T09:37:07.796Z,39.45
2023-04-30T09:38:07.757Z,39.45
2023-04-30T09:39:10.261Z,39.46
2023-04-30T09:40:07.743Z,39.45
2023-04-30T09:41:07.750Z,39.45
2023-04-30T09:42:07.810Z,39.43
2023-04-30T09:43:07.731Z,39.43
2023-04-30T09:44:07.702Z,39.43
2023-04-30T09:45:07.701Z,39.42
2023-04-30T09:46:07.714Z,39.41
2023-04-30T09:47:07.928Z,39.40
2023-04-30T09:48:16.429Z,39.40
2023-04-30T09:49:08.728Z,39.43
2023-04-30T09:50:07.689Z,39.40
2023-04-30T09:51:07.682Z,39.36
2023-04-30T09:52:07.663Z,39.36
2023-04-30T09:53:07.671Z,39.33
2023-04-30T09:54:07.688Z,39.36
2023-04-30T09:55:07.641Z,39.33
2023-04-30T09:56:07.680Z,39.32
2023-04-30T09:57:07.647Z,39.31
2023-04-30T09:58:07.659Z,39.30
2023-04-30T09:59:07.628Z,39.29
2023-04-30T10:00:07.616Z,39.26
2023-04-30T10:01:07.684Z,39.27
2023-04-30T10:02:07.609Z,39.27
2023-04-30T10:03:07.646Z,39.25
2023-04-30T10:04:07.657Z,39.27
2023-04-30T10:05:07.593Z,39.23
2023-04-30T10:06:07.594Z,39.22
2023-04-30T10:07:07.560Z,39.19
2023-04-30T10:08:07.592Z,39.20
2023-04-30T10:09:07.546Z,39.18
2023-04-30T10:10:07.575Z,39.19
2023-04-30T10:11:07.561Z,39.16
2023-04-30T10:12:07.563Z,39.17
2023-04-30T10:13:07.804Z,39.17
2023-04-30T10:14:07.510Z,39.17
2023-04-30T10:15:07.512Z,39.16
2023-04-30T10:16:07.572Z,39.16
2023-04-30T10:17:07.499Z,39.14
2023-04-30T10:18:07.640Z,39.12
2023-04-30T10:19:07.487Z,39.11
2023-04-30T10:20:07.504Z,39.13
2023-04-30T10:21:07.511Z,39.10
2023-04-30T10:22:07.489Z,39.12
2023-04-30T10:23:07.523Z,39.10
2023-04-30T10:24:07.533Z,39.08
2023-04-30T10:25:07.504Z,39.08
2023-04-30T10:26:07.532Z,39.06
2023-04-30T10:27:07.536Z,39.04
2023-04-30T10:28:07.550Z,39.01
2023-04-30T10:29:07.570Z,39.03
2023-04-30T10:30:07.540Z,39.02
2023-04-30T10:31:07.558Z,39.01
2023-04-30T10:32:07.668Z,39.04
2023-04-30T10:33:07.676Z,39.03
2023-04-30T10:34:07.565Z,38.99
2023-04-30T10:35:07.526Z,39.00
2023-04-30T10:36:07.545Z,39.00
2023-04-30T10:37:07.519Z,38.98
2023-04-30T10:38:07.588Z,38.99
2023-04-30T10:39:07.530Z,38.98
2023-04-30T10:40:07.517Z,38.96
2023-04-30T10:41:07.520Z,38.93
2023-04-30T10:42:07.549Z,38.91
2023-04-30T10:43:07.524Z,38.92
2023-04-30T10:44:07.497Z,38.90
2023-04-30T10:45:07.501Z,38.92
2023-04-30T10:46:07.549Z,38.91
2023-04-30T10:47:07.606Z,38.91
2023-04-30T10:48:07.569Z,38.91
2023-04-30T10:49:07.531Z,38.91
2023-04-30T10:50:07.504Z,38.92
2023-04-30T10:51:07.504Z,38.88
2023-04-30T10:52:07.506Z,38.89
2023-04-30T10:53:07.512Z,38.86
2023-04-30T10:54:07.562Z,38.86
2023-04-30T10:55:07.529Z,38.89
2023-04-30T10:56:07.520Z,38.89
2023-04-30T10:57:07.534Z,38.85
2023-04-30T10:58:07.542Z,38.85
2023-04-30T10:59:07.519Z,38.84
2023-04-30T11:00:07.546Z,38.85
2023-04-30T11:01:07.602Z,38.84
2023-04-30T11:02:07.518Z,38.85
2023-04-30T11:03:07.703Z,38.85
2023-04-30T11:04:07.537Z,38.82
2023-04-30T11:05:07.846Z,38.82
2023-04-30T11:06:07.665Z,38.84
2023-04-30T11:07:07.597Z,38.83
2023-04-30T11:08:07.628Z,38.84
2023-04-30T11:09:07.657Z,38.84
2023-04-30T11:10:07.655Z,38.82
2023-04-30T11:11:07.671Z,38.84
2023-04-30T11:12:07.712Z,38.81
2023-04-30T11:13:07.862Z,38.81
2023-04-30T11:14:07.817Z,38.82
2023-04-30T11:15:07.866Z,38.78
2023-04-30T11:16:08.058Z,38.79
2023-04-30T11:17:07.962Z,38.79
2023-04-30T11:18:08.144Z,38.80
2023-04-30T11:19:10.060Z,38.76
2023-04-30T11:20:08.071Z,38.76
2023-04-30T11:21:08.102Z,38.76
2023-04-30T11:22:08.095Z,38.74
2023-04-30T11:23:08.065Z,38.72
2023-04-30T11:24:08.034Z,38.71
2023-04-30T11:25:08.062Z,38.72
2023-04-30T11:26:08.082Z,38.71
2023-04-30T11:27:08.035Z,38.69
2023-04-30T11:28:08.006Z,38.68
2023-04-30T11:29:08.108Z,38.71
2023-04-30T11:30:08.006Z,38.66
2023-04-30T11:31:08.070Z,38.67
2023-04-30T11:32:07.979Z,38.68
2023-04-30T11:33:08.046Z,38.66
2023-04-30T11:34:07.981Z,38.63
2023-04-30T11:35:07.985Z,38.67
2023-04-30T11:36:07.991Z,38.65
2023-04-30T11:37:07.978Z,38.68
2023-04-30T11:38:07.940Z,38.68
2023-04-30T11:39:07.925Z,38.66
2023-04-30T11:40:07.918Z,38.64
2023-04-30T11:41:08.151Z,38.65
2023-04-30T11:42:07.910Z,38.64
2023-04-30T11:43:07.925Z,38.66
2023-04-30T11:44:07.901Z,38.64
2023-04-30T11:45:07.920Z,38.65
2023-04-30T11:46:07.958Z,38.65
2023-04-30T11:47:08.109Z,38.63
2023-04-30T11:48:07.894Z,38.66
2023-04-30T11:49:07.891Z,38.64
2023-04-30T11:50:07.863Z,38.65
2023-04-30T11:51:07.872Z,38.63
2023-04-30T11:52:07.916Z,38.63
2023-04-30T11:53:07.956Z,38.62
2023-04-30T11:54:08.034Z,38.63
2023-04-30T11:55:08.102Z,38.64
2023-04-30T11:56:08.691Z,38.64
2023-04-30T11:57:08.203Z,38.61
2023-04-30T11:58:08.308Z,38.62
2023-04-30T11:59:08.327Z,38.64
2023-04-30T12:00:08.480Z,38.66
2023-04-30T12:01:08.474Z,38.64
2023-04-30T12:02:08.847Z,38.65
2023-04-30T12:03:08.815Z,38.66
2023-04-30T12:04:08.812Z,38.64
2023-04-30T12:05:08.694Z,38.62
2023-04-30T12:06:08.796Z,38.64
2023-04-30T12:07:08.841Z,38.64
2023-04-30T12:08:08.914Z,38.66
2023-04-30T12:09:08.967Z,38.65
2023-04-30T12:10:09.142Z,38.66
2023-04-30T12:11:09.095Z,38.65
2023-04-30T12:12:09.116Z,38.65
2023-04-30T12:13:09.183Z,38.65
2023-04-30T12:14:09.276Z,38.66
2023-04-30T12:15:09.306Z,38.66
2023-04-30T12:16:09.393Z,38.64
2023-04-30T12:17:09.427Z,38.66
2023-04-30T12:18:09.462Z,38.64
2023-04-30T12:19:09.522Z,38.65
2023-04-30T12:20:09.600Z,38.64
2023-04-30T12:21:09.716Z,38.64
2023-04-30T12:22:09.702Z,38.67
2023-04-30T12:23:09.746Z,38.64
2023-04-30T12:24:09.812Z,38.68
2023-04-30T12:25:09.897Z,38.64
2023-04-30T12:26:09.915Z,38.67
2023-04-30T12:27:09.975Z,38.67
2023-04-30T12:28:10.025Z,38.70
2023-04-30T12:29:10.808Z,38.66
2023-04-30T12:30:10.188Z,38.68
2023-04-30T12:31:10.262Z,38.68
2023-04-30T12:32:10.356Z,38.69
2023-04-30T12:33:10.430Z,38.71
2023-04-30T12:34:10.408Z,38.74
2023-04-30T12:35:10.437Z,38.71
2023-04-30T12:36:10.545Z,38.70
2023-04-30T12:37:10.581Z,38.73
2023-04-30T12:38:10.647Z,38.72
2023-04-30T12:39:10.715Z,38.72
2023-04-30T12:40:10.739Z,38.73
2023-04-30T12:41:10.816Z,38.74
2023-04-30T12:42:10.886Z,38.73
2023-04-30T12:43:10.916Z,38.73
2023-04-30T12:44:10.961Z,38.72
2023-04-30T12:45:11.017Z,38.72
2023-04-30T12:46:11.096Z,38.70
2023-04-30T12:47:11.117Z,38.72
2023-04-30T12:48:11.340Z,38.72
2023-04-30T12:49:11.214Z,38.75
2023-04-30T12:50:11.257Z,38.74
2023-04-30T12:51:11.325Z,38.73
2023-04-30T12:52:11.368Z,38.74
2023-04-30T12:53:11.430Z,38.74